sensor_id;sensor_type;location;lat;lon;timestamp;temperature;humidity
69204;DHT22;56317;27.658;85.326;2024-03-25T00:01:13;11.40;99.90
69204;DHT22;56317;27.658;85.326;2024-03-25T00:03:40;11.40;99.90
69204;DHT22;56317;27.658;85.326;2024-03-25T00:06:10;11.40;99.90
69204;DHT22;56317;27.658;85.326;2024-03-25T00:08:37;11.30;99.90
69204;DHT22;56317;27.658;85.326;2024-03-25T00:11:04;11.30;99.90
69204;DHT22;56317;27.658;85.326;2024-03-25T00:13:31;11.40;99.90
69204;DHT22;56317;27.658;85.326;2024-03-25T00:15:59;11.40;99.90
69204;DHT22;56317;27.658;85.326;2024-03-25T00:18:27;11.50;99.90
69204;DHT22;56317;27.658;85.326;2024-03-25T00:20:54;11.60;99.90
69204;DHT22;56317;27.658;85.326;2024-03-25T00:23:21;11.60;99.90
69204;DHT22;56317;27.658;85.326;2024-03-25T00:25:48;11.50;99.90
69204;DHT22;56317;27.658;85.326;2024-03-25T00:28:15;11.30;99.90
69204;DHT22;56317;27.658;85.326;2024-03-25T00:30:42;11.20;99.90
69204;DHT22;56317;27.658;85.326;2024-03-25T00:33:09;11.20;99.90
69204;DHT22;56317;27.658;85.326;2024-03-25T00:35:38;11.20;99.90
69204;DHT22;56317;27.658;85.326;2024-03-25T00:38:05;11.40;99.90
69204;DHT22;56317;27.658;85.326;2024-03-25T00:40:33;11.50;99.90
69204;DHT22;56317;27.658;85.326;2024-03-25T00:43:00;11.50;99.90
69204;DHT22;56317;27.658;85.326;2024-03-25T00:45:28;11.50;99.90
69204;DHT22;56317;27.658;85.326;2024-03-25T00:47:57;11.50;99.90
69204;DHT22;56317;27.658;85.326;2024-03-25T00:50:26;11.60;99.90
69204;DHT22;56317;27.658;85.326;2024-03-25T00:52:53;11.60;99.90
69204;DHT22;56317;27.658;85.326;2024-03-25T00:55:21;11.80;99.90
69204;DHT22;56317;27.658;85.326;2024-03-25T00:57:48;11.90;99.90
69204;DHT22;56317;27.658;85.326;2024-03-25T01:00:15;11.90;99.90
69204;DHT22;56317;27.658;85.326;2024-03-25T01:02:42;12.00;99.90
69204;DHT22;56317;27.658;85.326;2024-03-25T01:05:10;12.10;99.90
69204;DHT22;56317;27.658;85.326;2024-03-25T01:07:37;12.30;99.90
69204;DHT22;56317;27.658;85.326;2024-03-25T01:10:05;12.40;99.90
69204;DHT22;56317;27.658;85.326;2024-03-25T01:12:33;12.50;99.90
69204;DHT22;56317;27.658;85.326;2024-03-25T01:15:00;12.60;99.90
69204;DHT22;56317;27.658;85.326;2024-03-25T01:17:28;12.70;99.90
69204;DHT22;56317;27.658;85.326;2024-03-25T01:19:55;12.90;99.90
69204;DHT22;56317;27.658;85.326;2024-03-25T01:22:22;13.00;99.90
69204;DHT22;56317;27.658;85.326;2024-03-25T01:24:54;13.10;99.90
69204;DHT22;56317;27.658;85.326;2024-03-25T01:27:21;13.30;99.90
69204;DHT22;56317;27.658;85.326;2024-03-25T01:29:48;13.40;99.90
69204;DHT22;56317;27.658;85.326;2024-03-25T01:32:15;13.60;99.90
69204;DHT22;56317;27.658;85.326;2024-03-25T01:34:42;13.60;94.20
69204;DHT22;56317;27.658;85.326;2024-03-25T01:37:09;13.70;99.90
69204;DHT22;56317;27.658;85.326;2024-03-25T01:39:36;13.80;1.00
69204;DHT22;56317;27.658;85.326;2024-03-25T01:42:06;13.90;1.00
69204;DHT22;56317;27.658;85.326;2024-03-25T01:44:33;14.00;1.00
69204;DHT22;56317;27.658;85.326;2024-03-25T01:47:00;14.10;1.00
69204;DHT22;56317;27.658;85.326;2024-03-25T01:49:28;14.20;99.90
69204;DHT22;56317;27.658;85.326;2024-03-25T01:51:56;14.40;99.90
69204;DHT22;56317;27.658;85.326;2024-03-25T01:54:24;14.40;99.90
69204;DHT22;56317;27.658;85.326;2024-03-25T01:56:52;14.50;99.90
69204;DHT22;56317;27.658;85.326;2024-03-25T01:59:22;14.60;99.90
69204;DHT22;56317;27.658;85.326;2024-03-25T02:01:50;14.70;1.00
69204;DHT22;56317;27.658;85.326;2024-03-25T02:04:17;14.90;99.90
69204;DHT22;56317;27.658;85.326;2024-03-25T02:06:45;14.90;1.00
69204;DHT22;56317;27.658;85.326;2024-03-25T02:09:13;15.10;92.30
69204;DHT22;56317;27.658;85.326;2024-03-25T02:11:41;15.30;1.00
69204;DHT22;56317;27.658;85.326;2024-03-25T02:14:09;15.50;99.90
69204;DHT22;56317;27.658;85.326;2024-03-25T02:16:36;15.50;1.00
69204;DHT22;56317;27.658;85.326;2024-03-25T02:19:03;15.70;77.60
69204;DHT22;56317;27.658;85.326;2024-03-25T02:21:31;16.00;99.90
69204;DHT22;56317;27.658;85.326;2024-03-25T02:24:00;16.30;99.90
69204;DHT22;56317;27.658;85.326;2024-03-25T02:26:30;16.30;99.90
69204;DHT22;56317;27.658;85.326;2024-03-25T02:28:57;16.30;53.40
69204;DHT22;56317;27.658;85.326;2024-03-25T02:31:24;16.60;1.00
69204;DHT22;56317;27.658;85.326;2024-03-25T02:33:51;16.70;1.00
69204;DHT22;56317;27.658;85.326;2024-03-25T02:36:18;17.00;1.00
69204;DHT22;56317;27.658;85.326;2024-03-25T02:38:46;17.30;99.90
69204;DHT22;56317;27.658;85.326;2024-03-25T02:41:14;17.50;99.90
69204;DHT22;56317;27.658;85.326;2024-03-25T02:43:41;17.70;99.40
69204;DHT22;56317;27.658;85.326;2024-03-25T02:46:09;17.90;41.20
69204;DHT22;56317;27.658;85.326;2024-03-25T02:48:36;18.10;1.00
69204;DHT22;56317;27.658;85.326;2024-03-25T02:51:03;18.10;99.90
69204;DHT22;56317;27.658;85.326;2024-03-25T02:53:30;18.30;99.90
69204;DHT22;56317;27.658;85.326;2024-03-25T02:55:58;18.40;99.90
69204;DHT22;56317;27.658;85.326;2024-03-25T02:58:25;18.70;99.90
69204;DHT22;56317;27.658;85.326;2024-03-25T03:00:52;19.00;99.90
69204;DHT22;56317;27.658;85.326;2024-03-25T03:03:19;19.20;99.90
69204;DHT22;56317;27.658;85.326;2024-03-25T03:05:46;19.40;99.90
69204;DHT22;56317;27.658;85.326;2024-03-25T03:08:13;19.60;99.90
69204;DHT22;56317;27.658;85.326;2024-03-25T03:10:40;19.90;99.90
69204;DHT22;56317;27.658;85.326;2024-03-25T03:13:07;20.00;99.90
69204;DHT22;56317;27.658;85.326;2024-03-25T03:15:36;20.30;99.90
69204;DHT22;56317;27.658;85.326;2024-03-25T03:18:03;20.50;99.90
69204;DHT22;56317;27.658;85.326;2024-03-25T03:20:30;20.70;94.60
69204;DHT22;56317;27.658;85.326;2024-03-25T03:22:57;20.80;45.20
69204;DHT22;56317;27.658;85.326;2024-03-25T03:25:25;20.90;30.80
69204;DHT22;56317;27.658;85.326;2024-03-25T03:27:52;20.90;1.00
69204;DHT22;56317;27.658;85.326;2024-03-25T03:30:19;21.00;1.00
69204;DHT22;56317;27.658;85.326;2024-03-25T03:32:46;21.40;1.00
69204;DHT22;56317;27.658;85.326;2024-03-25T03:35:16;21.50;1.00
69204;DHT22;56317;27.658;85.326;2024-03-25T03:37:43;21.60;1.00
69204;DHT22;56317;27.658;85.326;2024-03-25T03:40:10;21.40;1.00
69204;DHT22;56317;27.658;85.326;2024-03-25T03:42:38;21.80;1.00
69204;DHT22;56317;27.658;85.326;2024-03-25T03:45:08;22.30;1.00
69204;DHT22;56317;27.658;85.326;2024-03-25T03:47:35;22.70;1.00
69204;DHT22;56317;27.658;85.326;2024-03-25T03:50:02;22.90;1.00
69204;DHT22;56317;27.658;85.326;2024-03-25T03:52:29;22.90;1.00
69204;DHT22;56317;27.658;85.326;2024-03-25T03:54:57;22.80;1.00
69204;DHT22;56317;27.658;85.326;2024-03-25T03:57:24;23.10;1.00
69204;DHT22;56317;27.658;85.326;2024-03-25T03:59:52;23.50;1.00
69204;DHT22;56317;27.658;85.326;2024-03-25T04:02:21;23.30;1.00
69204;DHT22;56317;27.658;85.326;2024-03-25T04:04:48;23.20;1.00
69204;DHT22;56317;27.658;85.326;2024-03-25T04:07:16;23.30;1.00
69204;DHT22;56317;27.658;85.326;2024-03-25T04:09:44;23.70;1.00
69204;DHT22;56317;27.658;85.326;2024-03-25T04:12:12;23.50;1.00
69204;DHT22;56317;27.658;85.326;2024-03-25T04:14:39;23.00;1.00
69204;DHT22;56317;27.658;85.326;2024-03-25T04:17:07;22.80;1.00
69204;DHT22;56317;27.658;85.326;2024-03-25T04:19:34;23.00;1.00
69204;DHT22;56317;27.658;85.326;2024-03-25T04:22:04;23.70;1.00
69204;DHT22;56317;27.658;85.326;2024-03-25T04:24:33;24.30;1.00
69204;DHT22;56317;27.658;85.326;2024-03-25T04:27:01;24.40;99.90
69204;DHT22;56317;27.658;85.326;2024-03-25T04:29:28;23.90;99.90
69204;DHT22;56317;27.658;85.326;2024-03-25T04:31:56;24.10;99.90
69204;DHT22;56317;27.658;85.326;2024-03-25T04:34:23;24.90;99.90
69204;DHT22;56317;27.658;85.326;2024-03-25T04:36:51;25.40;99.90
69204;DHT22;56317;27.658;85.326;2024-03-25T04:39:19;25.40;99.90
69204;DHT22;56317;27.658;85.326;2024-03-25T04:41:48;25.80;99.90
69204;DHT22;56317;27.658;85.326;2024-03-25T04:44:20;25.70;99.90
69204;DHT22;56317;27.658;85.326;2024-03-25T04:46:47;25.70;99.90
69204;DHT22;56317;27.658;85.326;2024-03-25T04:49:15;26.20;99.90
69204;DHT22;56317;27.658;85.326;2024-03-25T04:51:43;25.50;99.90
69204;DHT22;56317;27.658;85.326;2024-03-25T04:54:10;26.20;99.90
69204;DHT22;56317;27.658;85.326;2024-03-25T04:56:37;26.70;99.90
69204;DHT22;56317;27.658;85.326;2024-03-25T04:59:05;27.20;99.90
69204;DHT22;56317;27.658;85.326;2024-03-25T05:01:32;27.50;99.90
69204;DHT22;56317;27.658;85.326;2024-03-25T05:03:59;28.00;99.90
69204;DHT22;56317;27.658;85.326;2024-03-25T05:06:26;28.40;99.90
69204;DHT22;56317;27.658;85.326;2024-03-25T05:08:53;28.30;99.90
69204;DHT22;56317;27.658;85.326;2024-03-25T05:11:21;28.20;99.90
69204;DHT22;56317;27.658;85.326;2024-03-25T05:13:48;29.00;99.90
69204;DHT22;56317;27.658;85.326;2024-03-25T05:16:16;29.70;99.90
69204;DHT22;56317;27.658;85.326;2024-03-25T05:18:43;30.10;99.90
69204;DHT22;56317;27.658;85.326;2024-03-25T05:21:10;30.20;99.90
69204;DHT22;56317;27.658;85.326;2024-03-25T05:23:37;29.00;99.90
69204;DHT22;56317;27.658;85.326;2024-03-25T05:26:04;28.70;99.90
69204;DHT22;56317;27.658;85.326;2024-03-25T05:28:32;27.60;99.90
69204;DHT22;56317;27.658;85.326;2024-03-25T05:31:09;26.90;99.90
69204;DHT22;56317;27.658;85.326;2024-03-25T05:33:39;27.20;99.90
69204;DHT22;56317;27.658;85.326;2024-03-25T05:36:07;29.90;99.90
69204;DHT22;56317;27.658;85.326;2024-03-25T05:38:35;34.50;99.90
69204;DHT22;56317;27.658;85.326;2024-03-25T05:41:02;38.10;99.90
69204;DHT22;56317;27.658;85.326;2024-03-25T05:43:29;41.70;99.90
69204;DHT22;56317;27.658;85.326;2024-03-25T05:45:57;42.00;99.90
69204;DHT22;56317;27.658;85.326;2024-03-25T05:48:27;42.10;99.90
69204;DHT22;56317;27.658;85.326;2024-03-25T05:51:12;44.80;99.90
69204;DHT22;56317;27.658;85.326;2024-03-25T05:53:41;45.50;99.90
69204;DHT22;56317;27.658;85.326;2024-03-25T05:56:09;42.70;99.90
69204;DHT22;56317;27.658;85.326;2024-03-25T05:58:37;44.10;99.90
69204;DHT22;56317;27.658;85.326;2024-03-25T06:01:04;46.10;99.90
69204;DHT22;56317;27.658;85.326;2024-03-25T06:03:31;48.10;99.90
69204;DHT22;56317;27.658;85.326;2024-03-25T06:05:58;44.00;99.90
69204;DHT22;56317;27.658;85.326;2024-03-25T06:08:26;41.30;99.90
69204;DHT22;56317;27.658;85.326;2024-03-25T06:11:00;45.00;99.90
69204;DHT22;56317;27.658;85.326;2024-03-25T06:13:30;47.30;99.90
69204;DHT22;56317;27.658;85.326;2024-03-25T06:15:58;44.30;99.90
69204;DHT22;56317;27.658;85.326;2024-03-25T06:18:25;45.70;99.90
69204;DHT22;56317;27.658;85.326;2024-03-25T06:20:52;48.30;99.90
69204;DHT22;56317;27.658;85.326;2024-03-25T06:23:26;49.20;99.90
69204;DHT22;56317;27.658;85.326;2024-03-25T06:25:54;45.70;99.90
69204;DHT22;56317;27.658;85.326;2024-03-25T06:28:22;47.40;99.90
69204;DHT22;56317;27.658;85.326;2024-03-25T06:30:51;49.50;99.90
69204;DHT22;56317;27.658;85.326;2024-03-25T06:33:37;45.20;99.90
69204;DHT22;56317;27.658;85.326;2024-03-25T06:36:22;40.00;99.90
69204;DHT22;56317;27.658;85.326;2024-03-25T06:38:50;38.90;99.90
69204;DHT22;56317;27.658;85.326;2024-03-25T06:41:20;37.50;99.90
69204;DHT22;56317;27.658;85.326;2024-03-25T06:43:47;42.50;99.90
69204;DHT22;56317;27.658;85.326;2024-03-25T06:46:14;45.80;99.90
69204;DHT22;56317;27.658;85.326;2024-03-25T06:48:42;43.00;99.90
69204;DHT22;56317;27.658;85.326;2024-03-25T06:51:09;45.40;99.90
69204;DHT22;56317;27.658;85.326;2024-03-25T06:53:36;44.30;99.90
69204;DHT22;56317;27.658;85.326;2024-03-25T06:56:04;45.90;99.90
69204;DHT22;56317;27.658;85.326;2024-03-25T06:58:31;44.70;99.90
69204;DHT22;56317;27.658;85.326;2024-03-25T07:01:05;43.30;99.90
69204;DHT22;56317;27.658;85.326;2024-03-25T07:03:35;43.30;99.90
69204;DHT22;56317;27.658;85.326;2024-03-25T07:06:04;42.90;99.90
69204;DHT22;56317;27.658;85.326;2024-03-25T07:08:32;39.80;99.90
69204;DHT22;56317;27.658;85.326;2024-03-25T07:11:02;42.70;99.90
69204;DHT22;56317;27.658;85.326;2024-03-25T07:13:37;45.70;99.90
69204;DHT22;56317;27.658;85.326;2024-03-25T07:16:05;44.50;99.90
69204;DHT22;56317;27.658;85.326;2024-03-25T07:18:38;47.80;99.90
69204;DHT22;56317;27.658;85.326;2024-03-25T07:21:05;50.20;99.90
69204;DHT22;56317;27.658;85.326;2024-03-25T07:23:32;47.90;99.90
69204;DHT22;56317;27.658;85.326;2024-03-25T07:26:00;45.50;99.90
69204;DHT22;56317;27.658;85.326;2024-03-25T07:28:29;42.70;99.90
69204;DHT22;56317;27.658;85.326;2024-03-25T07:31:03;42.10;99.90
69204;DHT22;56317;27.658;85.326;2024-03-25T07:33:30;38.70;99.90
69204;DHT22;56317;27.658;85.326;2024-03-25T07:35:58;39.40;99.90
69204;DHT22;56317;27.658;85.326;2024-03-25T07:38:25;36.40;99.90
69204;DHT22;56317;27.658;85.326;2024-03-25T07:40:52;34.40;99.90
69204;DHT22;56317;27.658;85.326;2024-03-25T07:43:19;35.50;99.90
69204;DHT22;56317;27.658;85.326;2024-03-25T07:45:47;32.00;99.90
69204;DHT22;56317;27.658;85.326;2024-03-25T07:48:14;29.90;99.90
69204;DHT22;56317;27.658;85.326;2024-03-25T07:50:42;29.00;99.90
69204;DHT22;56317;27.658;85.326;2024-03-25T07:53:09;34.30;99.90
69204;DHT22;56317;27.658;85.326;2024-03-25T07:55:36;31.50;99.90
69204;DHT22;56317;27.658;85.326;2024-03-25T07:58:04;28.50;99.90
69204;DHT22;56317;27.658;85.326;2024-03-25T08:00:31;27.20;99.90
69204;DHT22;56317;27.658;85.326;2024-03-25T08:02:59;27.90;99.90
69204;DHT22;56317;27.658;85.326;2024-03-25T08:05:28;27.00;99.90
69204;DHT22;56317;27.658;85.326;2024-03-25T08:07:56;29.80;99.90
69204;DHT22;56317;27.658;85.326;2024-03-25T08:10:23;28.90;99.90
69204;DHT22;56317;27.658;85.326;2024-03-25T08:12:50;32.10;99.90
69204;DHT22;56317;27.658;85.326;2024-03-25T08:15:18;32.80;99.90
69204;DHT22;56317;27.658;85.326;2024-03-25T08:17:45;35.60;99.90
69204;DHT22;56317;27.658;85.326;2024-03-25T08:20:13;35.70;99.90
69204;DHT22;56317;27.658;85.326;2024-03-25T08:22:40;35.20;99.90
69204;DHT22;56317;27.658;85.326;2024-03-25T08:25:08;37.80;99.90
69204;DHT22;56317;27.658;85.326;2024-03-25T08:27:35;37.90;99.90
69204;DHT22;56317;27.658;85.326;2024-03-25T08:30:04;38.30;99.90
69204;DHT22;56317;27.658;85.326;2024-03-25T08:32:34;37.50;99.90
69204;DHT22;56317;27.658;85.326;2024-03-25T08:35:01;36.50;99.90
69204;DHT22;56317;27.658;85.326;2024-03-25T08:37:29;35.80;99.90
69204;DHT22;56317;27.658;85.326;2024-03-25T08:39:57;34.50;99.90
69204;DHT22;56317;27.658;85.326;2024-03-25T08:42:24;34.00;99.90
69204;DHT22;56317;27.658;85.326;2024-03-25T08:44:51;29.90;99.90
69204;DHT22;56317;27.658;85.326;2024-03-25T08:47:19;27.30;99.90
69204;DHT22;56317;27.658;85.326;2024-03-25T08:49:46;26.60;99.90
69204;DHT22;56317;27.658;85.326;2024-03-25T08:52:13;29.90;99.90
69204;DHT22;56317;27.658;85.326;2024-03-25T08:54:40;32.20;99.90
69204;DHT22;56317;27.658;85.326;2024-03-25T08:57:07;29.50;99.90
69204;DHT22;56317;27.658;85.326;2024-03-25T08:59:35;31.10;99.90
69204;DHT22;56317;27.658;85.326;2024-03-25T09:02:02;30.50;99.90
69204;DHT22;56317;27.658;85.326;2024-03-25T09:04:29;29.00;99.90
69204;DHT22;56317;27.658;85.326;2024-03-25T09:06:56;29.60;99.90
69204;DHT22;56317;27.658;85.326;2024-03-25T09:09:24;27.90;99.90
69204;DHT22;56317;27.658;85.326;2024-03-25T09:12:09;26.40;99.90
69204;DHT22;56317;27.658;85.326;2024-03-25T09:14:37;28.00;99.90
69204;DHT22;56317;27.658;85.326;2024-03-25T09:17:05;30.40;99.90
69204;DHT22;56317;27.658;85.326;2024-03-25T09:19:32;27.00;99.90
69204;DHT22;56317;27.658;85.326;2024-03-25T09:21:59;25.10;99.90
69204;DHT22;56317;27.658;85.326;2024-03-25T09:24:26;24.40;99.90
69204;DHT22;56317;27.658;85.326;2024-03-25T09:26:54;23.70;99.90
69204;DHT22;56317;27.658;85.326;2024-03-25T09:29:21;24.90;99.90
69204;DHT22;56317;27.658;85.326;2024-03-25T09:31:48;27.70;99.90
69204;DHT22;56317;27.658;85.326;2024-03-25T09:34:15;29.90;99.90
69204;DHT22;56317;27.658;85.326;2024-03-25T09:36:43;27.90;99.90
69204;DHT22;56317;27.658;85.326;2024-03-25T09:39:10;26.40;99.90
69204;DHT22;56317;27.658;85.326;2024-03-25T09:41:39;25.00;99.90
69204;DHT22;56317;27.658;85.326;2024-03-25T09:44:12;26.40;99.90
69204;DHT22;56317;27.658;85.326;2024-03-25T09:46:39;26.70;99.90
69204;DHT22;56317;27.658;85.326;2024-03-25T09:49:07;25.60;99.90
69204;DHT22;56317;27.658;85.326;2024-03-25T09:51:35;24.30;99.90
69204;DHT22;56317;27.658;85.326;2024-03-25T09:54:02;23.80;99.90
69204;DHT22;56317;27.658;85.326;2024-03-25T09:56:31;23.50;99.90
69204;DHT22;56317;27.658;85.326;2024-03-25T09:59:01;23.70;99.90
69204;DHT22;56317;27.658;85.326;2024-03-25T10:01:31;23.90;99.90
69204;DHT22;56317;27.658;85.326;2024-03-25T10:03:58;25.20;99.90
69204;DHT22;56317;27.658;85.326;2024-03-25T10:06:25;27.50;99.90
69204;DHT22;56317;27.658;85.326;2024-03-25T10:08:57;28.90;99.90
69204;DHT22;56317;27.658;85.326;2024-03-25T10:11:25;26.90;99.90
69204;DHT22;56317;27.658;85.326;2024-03-25T10:13:54;25.80;99.90
69204;DHT22;56317;27.658;85.326;2024-03-25T10:16:25;25.20;99.90
69204;DHT22;56317;27.658;85.326;2024-03-25T10:18:52;24.00;99.90
69204;DHT22;56317;27.658;85.326;2024-03-25T10:21:20;23.30;99.90
69204;DHT22;56317;27.658;85.326;2024-03-25T10:23:48;22.70;99.90
69204;DHT22;56317;27.658;85.326;2024-03-25T10:26:31;22.50;99.90
69204;DHT22;56317;27.658;85.326;2024-03-25T10:29:05;22.10;99.90
69204;DHT22;56317;27.658;85.326;2024-03-25T10:31:37;21.90;99.90
69204;DHT22;56317;27.658;85.326;2024-03-25T10:34:04;21.90;99.90
69204;DHT22;56317;27.658;85.326;2024-03-25T10:36:32;21.70;99.90
69204;DHT22;56317;27.658;85.326;2024-03-25T10:39:02;21.70;99.90
69204;DHT22;56317;27.658;85.326;2024-03-25T10:41:35;21.60;99.90
69204;DHT22;56317;27.658;85.326;2024-03-25T10:58:50;21.80;99.90
69204;DHT22;56317;27.658;85.326;2024-03-25T11:01:23;21.60;99.90
69204;DHT22;56317;27.658;85.326;2024-03-25T11:03:51;21.70;99.90
69204;DHT22;56317;27.658;85.326;2024-03-25T11:06:19;21.70;99.90
69204;DHT22;56317;27.658;85.326;2024-03-25T11:08:56;21.40;99.90
69204;DHT22;56317;27.658;85.326;2024-03-25T11:11:30;21.30;99.90
69204;DHT22;56317;27.658;85.326;2024-03-25T11:13:58;21.30;99.90
69204;DHT22;56317;27.658;85.326;2024-03-25T11:16:32;21.20;99.90
69204;DHT22;56317;27.658;85.326;2024-03-25T11:19:06;21.20;99.90
69204;DHT22;56317;27.658;85.326;2024-03-25T11:21:33;21.10;99.90
69204;DHT22;56317;27.658;85.326;2024-03-25T11:24:07;21.10;99.90
69204;DHT22;56317;27.658;85.326;2024-03-25T11:26:34;21.00;99.90
69204;DHT22;56317;27.658;85.326;2024-03-25T11:29:02;20.90;99.90
69204;DHT22;56317;27.658;85.326;2024-03-25T11:31:30;20.90;99.90
69204;DHT22;56317;27.658;85.326;2024-03-25T11:34:04;20.80;99.90
69204;DHT22;56317;27.658;85.326;2024-03-25T11:36:32;20.80;99.90
69204;DHT22;56317;27.658;85.326;2024-03-25T11:39:03;20.70;99.90
69204;DHT22;56317;27.658;85.326;2024-03-25T11:41:39;20.60;99.90
69204;DHT22;56317;27.658;85.326;2024-03-25T11:44:12;20.60;99.90
69204;DHT22;56317;27.658;85.326;2024-03-25T11:46:39;20.50;99.90
69204;DHT22;56317;27.658;85.326;2024-03-25T11:49:09;20.40;99.90
69204;DHT22;56317;27.658;85.326;2024-03-25T11:51:36;20.30;99.90
69204;DHT22;56317;27.658;85.326;2024-03-25T11:54:09;20.30;99.90
69204;DHT22;56317;27.658;85.326;2024-03-25T11:56:37;20.20;99.90
69204;DHT22;56317;27.658;85.326;2024-03-25T11:59:09;20.10;99.90
69204;DHT22;56317;27.658;85.326;2024-03-25T12:01:38;20.00;99.90
69204;DHT22;56317;27.658;85.326;2024-03-25T12:04:16;19.90;99.90
69204;DHT22;56317;27.658;85.326;2024-03-25T12:06:44;19.90;99.90
69204;DHT22;56317;27.658;85.326;2024-03-25T12:09:12;19.80;99.90
69204;DHT22;56317;27.658;85.326;2024-03-25T12:11:57;19.70;99.90
69204;DHT22;56317;27.658;85.326;2024-03-25T12:14:25;19.60;99.90
69204;DHT22;56317;27.658;85.326;2024-03-25T12:16:57;19.50;99.90
69204;DHT22;56317;27.658;85.326;2024-03-25T12:19:25;19.40;99.90
69204;DHT22;56317;27.658;85.326;2024-03-25T12:22:00;19.40;99.90
69204;DHT22;56317;27.658;85.326;2024-03-25T12:24:27;19.30;99.90
69204;DHT22;56317;27.658;85.326;2024-03-25T12:26:55;19.20;99.90
69204;DHT22;56317;27.658;85.326;2024-03-25T12:29:23;19.20;99.90
69204;DHT22;56317;27.658;85.326;2024-03-25T12:31:59;19.20;99.90
69204;DHT22;56317;27.658;85.326;2024-03-25T12:34:28;19.10;99.90
69204;DHT22;56317;27.658;85.326;2024-03-25T12:37:02;19.00;99.90
69204;DHT22;56317;27.658;85.326;2024-03-25T12:39:33;19.00;99.90
69204;DHT22;56317;27.658;85.326;2024-03-25T12:42:05;19.00;99.90
69204;DHT22;56317;27.658;85.326;2024-03-25T12:44:33;19.10;99.90
69204;DHT22;56317;27.658;85.326;2024-03-25T12:47:01;19.10;99.90
69204;DHT22;56317;27.658;85.326;2024-03-25T12:49:28;19.00;99.90
69204;DHT22;56317;27.658;85.326;2024-03-25T12:51:55;18.90;99.90
69204;DHT22;56317;27.658;85.326;2024-03-25T12:54:22;18.80;99.90
69204;DHT22;56317;27.658;85.326;2024-03-25T12:56:49;18.80;99.90
69204;DHT22;56317;27.658;85.326;2024-03-25T12:59:17;18.70;99.90
69204;DHT22;56317;27.658;85.326;2024-03-25T13:01:44;18.60;99.90
69204;DHT22;56317;27.658;85.326;2024-03-25T13:04:12;18.60;99.90
69204;DHT22;56317;27.658;85.326;2024-03-25T13:06:39;18.60;99.90
69204;DHT22;56317;27.658;85.326;2024-03-25T13:09:06;18.60;99.90
69204;DHT22;56317;27.658;85.326;2024-03-25T13:11:34;18.60;99.90
69204;DHT22;56317;27.658;85.326;2024-03-25T13:14:01;18.50;99.90
69204;DHT22;56317;27.658;85.326;2024-03-25T13:16:29;18.40;99.90
69204;DHT22;56317;27.658;85.326;2024-03-25T13:18:57;18.40;99.90
69204;DHT22;56317;27.658;85.326;2024-03-25T13:21:25;18.20;99.90
69204;DHT22;56317;27.658;85.326;2024-03-25T13:23:55;18.00;99.90
69204;DHT22;56317;27.658;85.326;2024-03-25T13:26:22;17.90;99.90
69204;DHT22;56317;27.658;85.326;2024-03-25T13:28:49;17.80;99.90
69204;DHT22;56317;27.658;85.326;2024-03-25T13:31:16;17.80;99.90
69204;DHT22;56317;27.658;85.326;2024-03-25T13:33:43;17.70;99.90
69204;DHT22;56317;27.658;85.326;2024-03-25T13:36:10;17.60;99.90
69204;DHT22;56317;27.658;85.326;2024-03-25T13:38:37;17.60;99.90
69204;DHT22;56317;27.658;85.326;2024-03-25T13:41:05;17.50;99.90
69204;DHT22;56317;27.658;85.326;2024-03-25T13:43:32;17.60;99.90
69204;DHT22;56317;27.658;85.326;2024-03-25T13:45:59;17.80;99.90
69204;DHT22;56317;27.658;85.326;2024-03-25T13:48:26;17.90;99.90
69204;DHT22;56317;27.658;85.326;2024-03-25T13:50:54;17.90;99.90
69204;DHT22;56317;27.658;85.326;2024-03-25T13:53:21;17.80;99.90
69204;DHT22;56317;27.658;85.326;2024-03-25T13:55:49;17.80;99.90
69204;DHT22;56317;27.658;85.326;2024-03-25T13:58:17;17.70;1.00
69204;DHT22;56317;27.658;85.326;2024-03-25T14:00:44;17.80;1.00
69204;DHT22;56317;27.658;85.326;2024-03-25T14:03:11;17.90;99.90
69204;DHT22;56317;27.658;85.326;2024-03-25T14:05:38;17.90;99.90
69204;DHT22;56317;27.658;85.326;2024-03-25T14:08:05;17.90;1.00
69204;DHT22;56317;27.658;85.326;2024-03-25T14:10:32;17.80;99.90
69204;DHT22;56317;27.658;85.326;2024-03-25T14:12:59;17.70;1.00
69204;DHT22;56317;27.658;85.326;2024-03-25T14:15:27;17.60;1.00
69204;DHT22;56317;27.658;85.326;2024-03-25T14:17:54;17.60;1.00
69204;DHT22;56317;27.658;85.326;2024-03-25T14:20:21;17.70;1.00
69204;DHT22;56317;27.658;85.326;2024-03-25T14:22:48;17.70;1.00
69204;DHT22;56317;27.658;85.326;2024-03-25T14:25:15;17.70;1.00
69204;DHT22;56317;27.658;85.326;2024-03-25T14:27:42;17.60;1.00
69204;DHT22;56317;27.658;85.326;2024-03-25T14:30:10;17.60;1.00
69204;DHT22;56317;27.658;85.326;2024-03-25T14:32:37;17.50;1.00
69204;DHT22;56317;27.658;85.326;2024-03-25T14:35:05;17.50;1.00
69204;DHT22;56317;27.658;85.326;2024-03-25T14:37:35;17.50;1.00
69204;DHT22;56317;27.658;85.326;2024-03-25T14:40:07;17.50;1.00
69204;DHT22;56317;27.658;85.326;2024-03-25T14:42:35;17.50;1.00
69204;DHT22;56317;27.658;85.326;2024-03-25T14:45:03;17.50;1.00
69204;DHT22;56317;27.658;85.326;2024-03-25T14:47:32;17.50;1.00
69204;DHT22;56317;27.658;85.326;2024-03-25T14:49:59;17.50;1.00
69204;DHT22;56317;27.658;85.326;2024-03-25T14:52:26;17.50;1.00
69204;DHT22;56317;27.658;85.326;2024-03-25T14:54:54;17.50;1.00
69204;DHT22;56317;27.658;85.326;2024-03-25T14:57:21;17.40;1.00
69204;DHT22;56317;27.658;85.326;2024-03-25T14:59:48;17.40;1.00
69204;DHT22;56317;27.658;85.326;2024-03-25T15:02:15;17.40;99.90
69204;DHT22;56317;27.658;85.326;2024-03-25T15:04:43;17.50;99.90
69204;DHT22;56317;27.658;85.326;2024-03-25T15:07:18;17.50;1.00
69204;DHT22;56317;27.658;85.326;2024-03-25T15:09:46;17.50;99.90
69204;DHT22;56317;27.658;85.326;2024-03-25T15:12:13;17.50;99.90
69204;DHT22;56317;27.658;85.326;2024-03-25T15:14:40;17.50;1.00
69204;DHT22;56317;27.658;85.326;2024-03-25T15:17:07;17.50;9.40
69204;DHT22;56317;27.658;85.326;2024-03-25T15:19:35;17.50;1.00
69204;DHT22;56317;27.658;85.326;2024-03-25T15:22:02;17.40;1.00
69204;DHT22;56317;27.658;85.326;2024-03-25T15:24:29;17.40;1.00
69204;DHT22;56317;27.658;85.326;2024-03-25T15:26:56;17.30;1.00
69204;DHT22;56317;27.658;85.326;2024-03-25T15:29:23;17.30;1.00
69204;DHT22;56317;27.658;85.326;2024-03-25T15:31:50;17.30;99.90
69204;DHT22;56317;27.658;85.326;2024-03-25T15:34:19;17.20;99.90
69204;DHT22;56317;27.658;85.326;2024-03-25T15:36:47;17.20;1.00
69204;DHT22;56317;27.658;85.326;2024-03-25T15:39:16;17.20;99.90